Houche-Al-Oumara, Lebanon
Current Conditions -  °F | °C
As of 1:00 AM on Sunday 21 Dec 2014 (Local Time) from OLBA Reporting Station
Rain Showers Rain Showers  
Wind Chill: 59°   Ceiling: 2300
Heat Index: 59°   Visibility: 5mi
Dew Point: 48°   Wind: 10mph
Humidity: 67%   Direction: 120°ESE
Pressure: 30.15"   Gusts: NA
Location:  33.82°N, 35.85°E
Report Text: OLBA 202200Z 12009KT 070V140 8000 -SHRA FEW020CB BKN023 15/09 Q1021 RERA
Loading
Personal Weather Stations






























Interactive Weather Map New forecast layout! Learn more

10-Day Weather Forecast

Advertisements
Track Severe Weather on mobile